Terminal Aerodrome Forecast
Issued by NWS

Current Version | Previous Version | Text Only | Print | Product List | Glossary Off
Versions: 1 2 3 4 5 6 7 8 9 10 11 12 13 14 15 16 17 18 19 20 21 22 23 24 25

028
FTUS41 KPBZ 231429 AAA
TAFHLG
TAF AMD
KHLG 231429Z 2314/2412 22004KT 4SM BR BKN005
     FM231500 23003KT P6SM BKN015
     FM231700 23004KT P6SM BKN050
     FM240100 25005KT P6SM -SHRA VCTS BKN035CB
     FM240700 26004KT P6SM BKN015
     FM240900 26004KT P6SM BKN008=

USA.gov is the U.S. government's official web portal to all federal, state and local government web resources and services.